sensor_id;sensor_type;location;lat;lon;timestamp;P1;durP1;ratioP1;P2;durP2;ratioP2
81160;SDS011;70637;48.514;14.500;2023-08-01T00:00:16;12.35;;;2.92;;
81160;SDS011;70637;48.514;14.500;2023-08-01T00:02:41;3.90;;;2.45;;
81160;SDS011;70637;48.514;14.500;2023-08-01T00:05:07;8.13;;;2.65;;
81160;SDS011;70637;48.514;14.500;2023-08-01T00:07:33;6.97;;;2.60;;
81160;SDS011;70637;48.514;14.500;2023-08-01T00:09:59;5.00;;;2.67;;
81160;SDS011;70637;48.514;14.500;2023-08-01T00:12:25;6.45;;;3.10;;
81160;SDS011;70637;48.514;14.500;2023-08-01T00:14:50;7.57;;;2.47;;
81160;SDS011;70637;48.514;14.500;2023-08-01T00:17:16;6.10;;;2.70;;
81160;SDS011;70637;48.514;14.500;2023-08-01T00:19:42;3.83;;;2.80;;
81160;SDS011;70637;48.514;14.500;2023-08-01T00:22:08;5.80;;;2.80;;
81160;SDS011;70637;48.514;14.500;2023-08-01T00:24:35;7.03;;;2.80;;
81160;SDS011;70637;48.514;14.500;2023-08-01T00:27:01;4.00;;;2.40;;
81160;SDS011;70637;48.514;14.500;2023-08-01T00:29:27;4.35;;;2.58;;
81160;SDS011;70637;48.514;14.500;2023-08-01T00:31:52;3.60;;;2.50;;
81160;SDS011;70637;48.514;14.500;2023-08-01T00:34:18;3.80;;;2.28;;
81160;SDS011;70637;48.514;14.500;2023-08-01T00:36:44;5.43;;;2.30;;
81160;SDS011;70637;48.514;14.500;2023-08-01T00:39:10;4.30;;;2.53;;
81160;SDS011;70637;48.514;14.500;2023-08-01T00:41:35;5.18;;;2.67;;
81160;SDS011;70637;48.514;14.500;2023-08-01T00:44:01;3.88;;;2.42;;
81160;SDS011;70637;48.514;14.500;2023-08-01T00:46:26;4.35;;;2.63;;
81160;SDS011;70637;48.514;14.500;2023-08-01T00:48:52;4.13;;;2.35;;
81160;SDS011;70637;48.514;14.500;2023-08-01T00:51:22;11.25;;;2.70;;
81160;SDS011;70637;48.514;14.500;2023-08-01T00:53:49;5.70;;;3.03;;
81160;SDS011;70637;48.514;14.500;2023-08-01T00:56:16;3.42;;;2.58;;
81160;SDS011;70637;48.514;14.500;2023-08-01T00:58:42;4.53;;;2.95;;
81160;SDS011;70637;48.514;14.500;2023-08-01T01:01:07;5.65;;;2.67;;
81160;SDS011;70637;48.514;14.500;2023-08-01T01:03:33;4.40;;;2.55;;
81160;SDS011;70637;48.514;14.500;2023-08-01T01:06:45;5.90;;;2.90;;
81160;SDS011;70637;48.514;14.500;2023-08-01T01:08:58;3.70;;;2.50;;
81160;SDS011;70637;48.514;14.500;2023-08-01T01:11:24;4.75;;;2.38;;
81160;SDS011;70637;48.514;14.500;2023-08-01T01:13:50;3.30;;;2.45;;
81160;SDS011;70637;48.514;14.500;2023-08-01T01:16:18;3.90;;;2.70;;
81160;SDS011;70637;48.514;14.500;2023-08-01T01:18:45;3.83;;;2.47;;
81160;SDS011;70637;48.514;14.500;2023-08-01T01:21:26;3.70;;;2.42;;
81160;SDS011;70637;48.514;14.500;2023-08-01T01:24:25;4.00;;;2.58;;
81160;SDS011;70637;48.514;14.500;2023-08-01T01:26:53;4.28;;;2.90;;
81160;SDS011;70637;48.514;14.500;2023-08-01T01:29:21;4.57;;;2.53;;
81160;SDS011;70637;48.514;14.500;2023-08-01T01:31:47;5.22;;;2.78;;
81160;SDS011;70637;48.514;14.500;2023-08-01T01:34:14;7.20;;;2.70;;
81160;SDS011;70637;48.514;14.500;2023-08-01T01:36:40;6.03;;;2.70;;
81160;SDS011;70637;48.514;14.500;2023-08-01T01:39:05;4.25;;;2.55;;
81160;SDS011;70637;48.514;14.500;2023-08-01T01:41:31;5.63;;;2.70;;
81160;SDS011;70637;48.514;14.500;2023-08-01T01:43:57;5.55;;;2.67;;
81160;SDS011;70637;48.514;14.500;2023-08-01T01:46:22;4.25;;;2.60;;
81160;SDS011;70637;48.514;14.500;2023-08-01T01:48:50;3.75;;;2.35;;
81160;SDS011;70637;48.514;14.500;2023-08-01T01:51:16;4.55;;;2.42;;
81160;SDS011;70637;48.514;14.500;2023-08-01T01:53:42;5.32;;;2.63;;
81160;SDS011;70637;48.514;14.500;2023-08-01T01:56:07;4.13;;;2.55;;
81160;SDS011;70637;48.514;14.500;2023-08-01T01:58:33;4.43;;;2.72;;
81160;SDS011;70637;48.514;14.500;2023-08-01T02:00:59;4.55;;;2.88;;
81160;SDS011;70637;48.514;14.500;2023-08-01T02:03:25;3.95;;;2.60;;
81160;SDS011;70637;48.514;14.500;2023-08-01T02:05:50;3.80;;;2.50;;
81160;SDS011;70637;48.514;14.500;2023-08-01T02:08:16;5.35;;;3.10;;
81160;SDS011;70637;48.514;14.500;2023-08-01T02:10:41;4.18;;;2.53;;
81160;SDS011;70637;48.514;14.500;2023-08-01T02:13:07;3.58;;;2.60;;
81160;SDS011;70637;48.514;14.500;2023-08-01T02:15:35;4.13;;;2.88;;
81160;SDS011;70637;48.514;14.500;2023-08-01T02:18:02;3.83;;;2.72;;
81160;SDS011;70637;48.514;14.500;2023-08-01T02:20:28;5.45;;;3.00;;
81160;SDS011;70637;48.514;14.500;2023-08-01T02:22:54;4.70;;;3.10;;
81160;SDS011;70637;48.514;14.500;2023-08-01T02:25:19;5.85;;;2.95;;
81160;SDS011;70637;48.514;14.500;2023-08-01T02:27:45;4.97;;;3.00;;
81160;SDS011;70637;48.514;14.500;2023-08-01T02:30:11;3.53;;;2.60;;
81160;SDS011;70637;48.514;14.500;2023-08-01T02:32:36;6.63;;;3.05;;
81160;SDS011;70637;48.514;14.500;2023-08-01T02:35:02;6.22;;;2.90;;
81160;SDS011;70637;48.514;14.500;2023-08-01T02:37:28;5.03;;;2.97;;
81160;SDS011;70637;48.514;14.500;2023-08-01T02:39:53;3.90;;;2.83;;
81160;SDS011;70637;48.514;14.500;2023-08-01T02:42:19;5.80;;;2.78;;
81160;SDS011;70637;48.514;14.500;2023-08-01T02:44:44;7.18;;;2.45;;
81160;SDS011;70637;48.514;14.500;2023-08-01T02:47:10;5.47;;;3.08;;
81160;SDS011;70637;48.514;14.500;2023-08-01T02:49:36;4.93;;;3.00;;
81160;SDS011;70637;48.514;14.500;2023-08-01T02:52:01;4.22;;;3.10;;
81160;SDS011;70637;48.514;14.500;2023-08-01T02:54:27;4.13;;;2.85;;
81160;SDS011;70637;48.514;14.500;2023-08-01T02:56:53;6.72;;;3.17;;
81160;SDS011;70637;48.514;14.500;2023-08-01T02:59:18;5.70;;;2.90;;
81160;SDS011;70637;48.514;14.500;2023-08-01T03:01:44;6.00;;;3.08;;
81160;SDS011;70637;48.514;14.500;2023-08-01T03:04:10;4.85;;;2.90;;
81160;SDS011;70637;48.514;14.500;2023-08-01T03:06:37;3.90;;;2.50;;
81160;SDS011;70637;48.514;14.500;2023-08-01T03:09:03;14.85;;;9.30;;
81160;SDS011;70637;48.514;14.500;2023-08-01T03:11:32;435.20;;;156.70;;
81160;SDS011;70637;48.514;14.500;2023-08-01T03:14:00;506.00;;;205.65;;
81160;SDS011;70637;48.514;14.500;2023-08-01T03:16:26;456.63;;;197.98;;
81160;SDS011;70637;48.514;14.500;2023-08-01T03:18:51;94.25;;;62.20;;
81160;SDS011;70637;48.514;14.500;2023-08-01T03:21:17;19.15;;;12.82;;
81160;SDS011;70637;48.514;14.500;2023-08-01T03:23:43;10.05;;;7.15;;
81160;SDS011;70637;48.514;14.500;2023-08-01T03:26:10;8.05;;;4.20;;
81160;SDS011;70637;48.514;14.500;2023-08-01T03:28:35;8.82;;;4.93;;
81160;SDS011;70637;48.514;14.500;2023-08-01T03:31:01;9.30;;;5.57;;
81160;SDS011;70637;48.514;14.500;2023-08-01T03:33:27;13.52;;;9.27;;
81160;SDS011;70637;48.514;14.500;2023-08-01T03:35:53;12.82;;;8.90;;
81160;SDS011;70637;48.514;14.500;2023-08-01T03:38:18;14.52;;;9.40;;
81160;SDS011;70637;48.514;14.500;2023-08-01T03:40:44;11.55;;;6.85;;
81160;SDS011;70637;48.514;14.500;2023-08-01T03:43:10;6.80;;;4.28;;
81160;SDS011;70637;48.514;14.500;2023-08-01T03:45:35;6.28;;;3.60;;
81160;SDS011;70637;48.514;14.500;2023-08-01T03:48:01;5.15;;;3.70;;
81160;SDS011;70637;48.514;14.500;2023-08-01T03:50:27;5.53;;;3.25;;
81160;SDS011;70637;48.514;14.500;2023-08-01T03:52:52;4.20;;;3.67;;
81160;SDS011;70637;48.514;14.500;2023-08-01T03:55:18;7.70;;;3.50;;
81160;SDS011;70637;48.514;14.500;2023-08-01T03:57:44;6.50;;;3.65;;
81160;SDS011;70637;48.514;14.500;2023-08-01T04:00:09;6.93;;;4.05;;
81160;SDS011;70637;48.514;14.500;2023-08-01T04:02:41;4.88;;;3.70;;
81160;SDS011;70637;48.514;14.500;2023-08-01T04:05:07;5.60;;;3.83;;
81160;SDS011;70637;48.514;14.500;2023-08-01T04:07:34;7.40;;;3.85;;
81160;SDS011;70637;48.514;14.500;2023-08-01T04:10:01;6.57;;;4.38;;
81160;SDS011;70637;48.514;14.500;2023-08-01T04:12:27;7.82;;;4.10;;
81160;SDS011;70637;48.514;14.500;2023-08-01T04:14:53;5.05;;;3.70;;
81160;SDS011;70637;48.514;14.500;2023-08-01T04:17:19;7.20;;;4.30;;
81160;SDS011;70637;48.514;14.500;2023-08-01T04:19:44;6.45;;;4.03;;
81160;SDS011;70637;48.514;14.500;2023-08-01T04:22:10;5.78;;;4.57;;
81160;SDS011;70637;48.514;14.500;2023-08-01T04:24:36;6.68;;;4.05;;
81160;SDS011;70637;48.514;14.500;2023-08-01T04:27:01;6.55;;;4.30;;
81160;SDS011;70637;48.514;14.500;2023-08-01T04:29:27;8.80;;;3.97;;
81160;SDS011;70637;48.514;14.500;2023-08-01T04:31:52;6.38;;;4.25;;
81160;SDS011;70637;48.514;14.500;2023-08-01T04:34:18;5.63;;;4.20;;
81160;SDS011;70637;48.514;14.500;2023-08-01T04:36:44;6.07;;;4.40;;
81160;SDS011;70637;48.514;14.500;2023-08-01T04:39:09;7.43;;;4.50;;
81160;SDS011;70637;48.514;14.500;2023-08-01T04:41:35;6.68;;;3.75;;
81160;SDS011;70637;48.514;14.500;2023-08-01T04:44:01;4.82;;;3.70;;
81160;SDS011;70637;48.514;14.500;2023-08-01T04:46:26;6.80;;;3.63;;
81160;SDS011;70637;48.514;14.500;2023-08-01T04:48:52;7.47;;;4.32;;
81160;SDS011;70637;48.514;14.500;2023-08-01T04:51:17;7.55;;;4.32;;
81160;SDS011;70637;48.514;14.500;2023-08-01T04:53:43;6.38;;;4.70;;
81160;SDS011;70637;48.514;14.500;2023-08-01T04:56:08;5.72;;;4.13;;
81160;SDS011;70637;48.514;14.500;2023-08-01T04:58:34;8.52;;;4.40;;
81160;SDS011;70637;48.514;14.500;2023-08-01T05:01:00;8.00;;;4.38;;
81160;SDS011;70637;48.514;14.500;2023-08-01T05:03:25;7.10;;;4.55;;
81160;SDS011;70637;48.514;14.500;2023-08-01T05:05:51;5.90;;;4.28;;
81160;SDS011;70637;48.514;14.500;2023-08-01T05:08:16;6.07;;;3.85;;
81160;SDS011;70637;48.514;14.500;2023-08-01T05:10:42;7.65;;;4.50;;
81160;SDS011;70637;48.514;14.500;2023-08-01T05:13:08;8.20;;;4.35;;
81160;SDS011;70637;48.514;14.500;2023-08-01T05:15:33;6.55;;;4.38;;
81160;SDS011;70637;48.514;14.500;2023-08-01T05:17:59;5.78;;;4.40;;
81160;SDS011;70637;48.514;14.500;2023-08-01T05:20:25;6.47;;;4.07;;
81160;SDS011;70637;48.514;14.500;2023-08-01T05:22:55;9.73;;;4.95;;
81160;SDS011;70637;48.514;14.500;2023-08-01T05:25:24;6.95;;;4.50;;
81160;SDS011;70637;48.514;14.500;2023-08-01T05:27:50;7.57;;;4.22;;
81160;SDS011;70637;48.514;14.500;2023-08-01T05:30:16;10.70;;;4.78;;
81160;SDS011;70637;48.514;14.500;2023-08-01T05:32:41;7.95;;;4.40;;
81160;SDS011;70637;48.514;14.500;2023-08-01T05:35:14;7.43;;;4.45;;
81160;SDS011;70637;48.514;14.500;2023-08-01T05:37:43;9.93;;;4.82;;
81160;SDS011;70637;48.514;14.500;2023-08-01T05:40:09;6.60;;;4.32;;
81160;SDS011;70637;48.514;14.500;2023-08-01T05:42:35;7.88;;;4.60;;
81160;SDS011;70637;48.514;14.500;2023-08-01T05:45:00;7.78;;;4.85;;
81160;SDS011;70637;48.514;14.500;2023-08-01T05:47:26;8.95;;;4.53;;
81160;SDS011;70637;48.514;14.500;2023-08-01T05:49:53;9.27;;;4.65;;
81160;SDS011;70637;48.514;14.500;2023-08-01T05:52:19;8.23;;;4.85;;
81160;SDS011;70637;48.514;14.500;2023-08-01T05:54:44;7.70;;;4.25;;
81160;SDS011;70637;48.514;14.500;2023-08-01T05:57:10;7.72;;;4.07;;
81160;SDS011;70637;48.514;14.500;2023-08-01T05:59:38;11.05;;;4.53;;
81160;SDS011;70637;48.514;14.500;2023-08-01T06:02:07;8.25;;;4.35;;
81160;SDS011;70637;48.514;14.500;2023-08-01T06:04:32;8.18;;;4.15;;
81160;SDS011;70637;48.514;14.500;2023-08-01T06:06:58;9.00;;;4.35;;
81160;SDS011;70637;48.514;14.500;2023-08-01T06:09:24;6.13;;;4.40;;
81160;SDS011;70637;48.514;14.500;2023-08-01T06:11:50;7.38;;;4.55;;
81160;SDS011;70637;48.514;14.500;2023-08-01T06:14:16;8.00;;;4.65;;
81160;SDS011;70637;48.514;14.500;2023-08-01T06:16:42;7.40;;;4.80;;
81160;SDS011;70637;48.514;14.500;2023-08-01T06:19:07;7.38;;;4.78;;
81160;SDS011;70637;48.514;14.500;2023-08-01T06:21:33;10.07;;;5.18;;
81160;SDS011;70637;48.514;14.500;2023-08-01T06:23:59;7.03;;;4.72;;
81160;SDS011;70637;48.514;14.500;2023-08-01T06:26:24;8.30;;;4.78;;
81160;SDS011;70637;48.514;14.500;2023-08-01T06:28:51;8.25;;;4.88;;
81160;SDS011;70637;48.514;14.500;2023-08-01T06:31:18;10.23;;;5.30;;
81160;SDS011;70637;48.514;14.500;2023-08-01T06:33:45;7.57;;;5.00;;
81160;SDS011;70637;48.514;14.500;2023-08-01T06:36:10;9.05;;;5.47;;
81160;SDS011;70637;48.514;14.500;2023-08-01T06:38:36;9.45;;;5.57;;
81160;SDS011;70637;48.514;14.500;2023-08-01T06:41:01;12.50;;;5.35;;
81160;SDS011;70637;48.514;14.500;2023-08-01T06:43:28;8.55;;;5.45;;
81160;SDS011;70637;48.514;14.500;2023-08-01T06:45:53;11.30;;;6.20;;
81160;SDS011;70637;48.514;14.500;2023-08-01T06:48:19;11.60;;;5.88;;
81160;SDS011;70637;48.514;14.500;2023-08-01T06:50:45;13.30;;;5.95;;
81160;SDS011;70637;48.514;14.500;2023-08-01T06:53:10;9.75;;;5.80;;
81160;SDS011;70637;48.514;14.500;2023-08-01T06:55:36;9.55;;;5.47;;
81160;SDS011;70637;48.514;14.500;2023-08-01T06:58:02;10.27;;;6.07;;
81160;SDS011;70637;48.514;14.500;2023-08-01T07:00:28;9.85;;;5.75;;
81160;SDS011;70637;48.514;14.500;2023-08-01T07:02:54;10.32;;;6.25;;
81160;SDS011;70637;48.514;14.500;2023-08-01T07:05:19;10.63;;;6.80;;
81160;SDS011;70637;48.514;14.500;2023-08-01T07:07:45;9.23;;;6.35;;
81160;SDS011;70637;48.514;14.500;2023-08-01T07:10:11;10.52;;;5.97;;
81160;SDS011;70637;48.514;14.500;2023-08-01T07:12:37;11.73;;;6.35;;
81160;SDS011;70637;48.514;14.500;2023-08-01T07:15:02;10.38;;;6.88;;
81160;SDS011;70637;48.514;14.500;2023-08-01T07:17:28;9.90;;;6.30;;
81160;SDS011;70637;48.514;14.500;2023-08-01T07:19:54;9.82;;;6.03;;
81160;SDS011;70637;48.514;14.500;2023-08-01T07:22:20;12.10;;;6.40;;
81160;SDS011;70637;48.514;14.500;2023-08-01T07:24:46;8.18;;;5.47;;
81160;SDS011;70637;48.514;14.500;2023-08-01T07:27:11;10.75;;;6.15;;
81160;SDS011;70637;48.514;14.500;2023-08-01T07:29:37;10.93;;;5.90;;
81160;SDS011;70637;48.514;14.500;2023-08-01T07:32:03;9.43;;;5.63;;
81160;SDS011;70637;48.514;14.500;2023-08-01T07:34:30;10.05;;;5.75;;
81160;SDS011;70637;48.514;14.500;2023-08-01T07:36:55;9.23;;;5.82;;
81160;SDS011;70637;48.514;14.500;2023-08-01T07:39:21;12.20;;;5.22;;
81160;SDS011;70637;48.514;14.500;2023-08-01T07:41:47;7.97;;;5.35;;
81160;SDS011;70637;48.514;14.500;2023-08-01T07:44:13;8.77;;;5.45;;
81160;SDS011;70637;48.514;14.500;2023-08-01T07:46:40;7.75;;;4.85;;
81160;SDS011;70637;48.514;14.500;2023-08-01T07:49:05;9.93;;;4.88;;
81160;SDS011;70637;48.514;14.500;2023-08-01T07:51:31;8.02;;;5.45;;
81160;SDS011;70637;48.514;14.500;2023-08-01T07:53:59;7.63;;;5.40;;
81160;SDS011;70637;48.514;14.500;2023-08-01T07:56:25;7.10;;;5.32;;
81160;SDS011;70637;48.514;14.500;2023-08-01T07:58:51;8.80;;;5.55;;
81160;SDS011;70637;48.514;14.500;2023-08-01T08:01:16;7.70;;;5.55;;
81160;SDS011;70637;48.514;14.500;2023-08-01T08:03:42;11.52;;;6.70;;
81160;SDS011;70637;48.514;14.500;2023-08-01T08:06:11;9.07;;;6.53;;
81160;SDS011;70637;48.514;14.500;2023-08-01T08:08:37;16.73;;;6.63;;
81160;SDS011;70637;48.514;14.500;2023-08-01T08:11:03;9.95;;;6.00;;
81160;SDS011;70637;48.514;14.500;2023-08-01T08:13:29;14.02;;;7.20;;
81160;SDS011;70637;48.514;14.500;2023-08-01T08:15:55;11.68;;;7.03;;
81160;SDS011;70637;48.514;14.500;2023-08-01T08:18:22;10.75;;;6.95;;
81160;SDS011;70637;48.514;14.500;2023-08-01T08:20:48;11.73;;;6.47;;
81160;SDS011;70637;48.514;14.500;2023-08-01T08:23:14;10.70;;;6.85;;
81160;SDS011;70637;48.514;14.500;2023-08-01T08:25:40;16.27;;;7.60;;
81160;SDS011;70637;48.514;14.500;2023-08-01T08:28:07;14.65;;;8.15;;
81160;SDS011;70637;48.514;14.500;2023-08-01T08:30:33;12.15;;;8.77;;
81160;SDS011;70637;48.514;14.500;2023-08-01T08:33:00;15.73;;;9.82;;
81160;SDS011;70637;48.514;14.500;2023-08-01T08:35:32;15.00;;;11.23;;
81160;SDS011;70637;48.514;14.500;2023-08-01T08:38:01;17.45;;;11.48;;
81160;SDS011;70637;48.514;14.500;2023-08-01T08:40:28;14.75;;;11.90;;
81160;SDS011;70637;48.514;14.500;2023-08-01T08:42:53;14.73;;;11.43;;
81160;SDS011;70637;48.514;14.500;2023-08-01T08:45:20;14.35;;;12.15;;
81160;SDS011;70637;48.514;14.500;2023-08-01T08:47:48;15.55;;;12.23;;
81160;SDS011;70637;48.514;14.500;2023-08-01T08:50:20;14.38;;;9.88;;
81160;SDS011;70637;48.514;14.500;2023-08-01T08:52:46;15.13;;;11.63;;
81160;SDS011;70637;48.514;14.500;2023-08-01T08:55:12;16.67;;;12.38;;
81160;SDS011;70637;48.514;14.500;2023-08-01T08:57:38;15.38;;;12.23;;
81160;SDS011;70637;48.514;14.500;2023-08-01T09:00:05;17.65;;;13.18;;
81160;SDS011;70637;48.514;14.500;2023-08-01T09:02:32;17.23;;;12.85;;
81160;SDS011;70637;48.514;14.500;2023-08-01T09:04:58;18.55;;;12.38;;
81160;SDS011;70637;48.514;14.500;2023-08-01T09:07:24;16.02;;;12.70;;
81160;SDS011;70637;48.514;14.500;2023-08-01T09:09:54;15.20;;;12.13;;
81160;SDS011;70637;48.514;14.500;2023-08-01T09:12:20;14.13;;;12.48;;
81160;SDS011;70637;48.514;14.500;2023-08-01T09:14:47;13.20;;;11.18;;
81160;SDS011;70637;48.514;14.500;2023-08-01T09:17:15;13.50;;;11.10;;
81160;SDS011;70637;48.514;14.500;2023-08-01T09:19:43;13.30;;;11.43;;
81160;SDS011;70637;48.514;14.500;2023-08-01T09:22:10;14.70;;;11.05;;
81160;SDS011;70637;48.514;14.500;2023-08-01T09:24:37;13.80;;;10.25;;
81160;SDS011;70637;48.514;14.500;2023-08-01T09:27:03;14.82;;;9.98;;
81160;SDS011;70637;48.514;14.500;2023-08-01T09:29:29;10.38;;;8.38;;
81160;SDS011;70637;48.514;14.500;2023-08-01T09:31:56;9.40;;;7.68;;
81160;SDS011;70637;48.514;14.500;2023-08-01T09:34:23;8.82;;;7.80;;
81160;SDS011;70637;48.514;14.500;2023-08-01T09:36:50;11.18;;;7.60;;
81160;SDS011;70637;48.514;14.500;2023-08-01T09:39:17;9.75;;;7.53;;
81160;SDS011;70637;48.514;14.500;2023-08-01T09:41:44;11.70;;;7.03;;
81160;SDS011;70637;48.514;14.500;2023-08-01T09:44:16;9.82;;;7.22;;
81160;SDS011;70637;48.514;14.500;2023-08-01T09:46:42;8.48;;;5.95;;
81160;SDS011;70637;48.514;14.500;2023-08-01T09:49:11;9.38;;;7.53;;
81160;SDS011;70637;48.514;14.500;2023-08-01T09:51:47;8.98;;;6.75;;
81160;SDS011;70637;48.514;14.500;2023-08-01T09:54:16;11.73;;;6.75;;
81160;SDS011;70637;48.514;14.500;2023-08-01T09:56:44;13.95;;;7.75;;
81160;SDS011;70637;48.514;14.500;2023-08-01T09:59:10;9.38;;;7.80;;
81160;SDS011;70637;48.514;14.500;2023-08-01T10:01:36;9.13;;;7.80;;
81160;SDS011;70637;48.514;14.500;2023-08-01T10:04:04;10.57;;;9.35;;
81160;SDS011;70637;48.514;14.500;2023-08-01T10:06:33;12.85;;;9.57;;
81160;SDS011;70637;48.514;14.500;2023-08-01T10:09:01;9.82;;;8.73;;
81160;SDS011;70637;48.514;14.500;2023-08-01T10:11:27;10.63;;;8.38;;
81160;SDS011;70637;48.514;14.500;2023-08-01T10:13:58;11.25;;;9.30;;
81160;SDS011;70637;48.514;14.500;2023-08-01T10:16:25;10.75;;;9.32;;
81160;SDS011;70637;48.514;14.500;2023-08-01T10:18:51;11.55;;;9.52;;
81160;SDS011;70637;48.514;14.500;2023-08-01T10:21:17;12.60;;;10.00;;
81160;SDS011;70637;48.514;14.500;2023-08-01T10:23:45;10.55;;;8.82;;
81160;SDS011;70637;48.514;14.500;2023-08-01T10:26:12;10.40;;;8.20;;
81160;SDS011;70637;48.514;14.500;2023-08-01T10:28:39;11.30;;;9.65;;
81160;SDS011;70637;48.514;14.500;2023-08-01T10:31:13;10.55;;;8.70;;
81160;SDS011;70637;48.514;14.500;2023-08-01T10:33:41;10.23;;;8.23;;
81160;SDS011;70637;48.514;14.500;2023-08-01T10:36:14;11.82;;;8.70;;
81160;SDS011;70637;48.514;14.500;2023-08-01T10:38:52;10.68;;;8.25;;
81160;SDS011;70637;48.514;14.500;2023-08-01T10:41:25;10.93;;;8.00;;
81160;SDS011;70637;48.514;14.500;2023-08-01T10:44:10;8.88;;;7.80;;
81160;SDS011;70637;48.514;14.500;2023-08-01T10:49:40;11.93;;;8.43;;
81160;SDS011;70637;48.514;14.500;2023-08-01T10:52:26;10.85;;;9.05;;
81160;SDS011;70637;48.514;14.500;2023-08-01T10:55:00;10.23;;;8.15;;
81160;SDS011;70637;48.514;14.500;2023-08-01T10:57:27;10.70;;;8.57;;
81160;SDS011;70637;48.514;14.500;2023-08-01T10:59:59;12.82;;;9.35;;
81160;SDS011;70637;48.514;14.500;2023-08-01T11:02:25;12.23;;;8.73;;
81160;SDS011;70637;48.514;14.500;2023-08-01T11:04:56;10.30;;;8.20;;
81160;SDS011;70637;48.514;14.500;2023-08-01T11:07:23;12.50;;;8.80;;
81160;SDS011;70637;48.514;14.500;2023-08-01T11:09:48;10.35;;;9.10;;
81160;SDS011;70637;48.514;14.500;2023-08-01T11:12:14;13.02;;;9.50;;
81160;SDS011;70637;48.514;14.500;2023-08-01T11:14:40;13.32;;;10.40;;
81160;SDS011;70637;48.514;14.500;2023-08-01T11:17:05;13.60;;;10.65;;
81160;SDS011;70637;48.514;14.500;2023-08-01T11:19:32;13.18;;;10.55;;
81160;SDS011;70637;48.514;14.500;2023-08-01T11:21:57;13.13;;;11.00;;
81160;SDS011;70637;48.514;14.500;2023-08-01T11:24:33;14.05;;;11.73;;
81160;SDS011;70637;48.514;14.500;2023-08-01T11:26:58;13.10;;;11.23;;
81160;SDS011;70637;48.514;14.500;2023-08-01T11:29:24;12.70;;;10.10;;
81160;SDS011;70637;48.514;14.500;2023-08-01T11:31:53;11.38;;;9.45;;
81160;SDS011;70637;48.514;14.500;2023-08-01T11:34:20;10.60;;;8.80;;
81160;SDS011;70637;48.514;14.500;2023-08-01T11:36:47;12.90;;;9.32;;
81160;SDS011;70637;48.514;14.500;2023-08-01T11:39:13;10.93;;;8.00;;
81160;SDS011;70637;48.514;14.500;2023-08-01T11:41:40;12.52;;;8.45;;
81160;SDS011;70637;48.514;14.500;2023-08-01T11:44:06;12.52;;;7.47;;
81160;SDS011;70637;48.514;14.500;2023-08-01T11:46:32;8.23;;;5.85;;
81160;SDS011;70637;48.514;14.500;2023-08-01T11:48:59;9.18;;;6.72;;
81160;SDS011;70637;48.514;14.500;2023-08-01T11:51:28;8.25;;;5.93;;
81160;SDS011;70637;48.514;14.500;2023-08-01T11:54:01;8.95;;;6.07;;
81160;SDS011;70637;48.514;14.500;2023-08-01T11:56:28;9.90;;;5.85;;
81160;SDS011;70637;48.514;14.500;2023-08-01T11:58:54;8.52;;;6.00;;
81160;SDS011;70637;48.514;14.500;2023-08-01T12:01:20;12.05;;;6.57;;
81160;SDS011;70637;48.514;14.500;2023-08-01T12:03:49;10.77;;;7.43;;
81160;SDS011;70637;48.514;14.500;2023-08-01T12:06:16;8.43;;;5.90;;
81160;SDS011;70637;48.514;14.500;2023-08-01T12:08:46;7.63;;;5.53;;
81160;SDS011;70637;48.514;14.500;2023-08-01T12:13:47;8.63;;;5.30;;
81160;SDS011;70637;48.514;14.500;2023-08-01T12:16:24;7.22;;;4.75;;
81160;SDS011;70637;48.514;14.500;2023-08-01T12:18:50;8.95;;;4.93;;
81160;SDS011;70637;48.514;14.500;2023-08-01T12:21:16;7.38;;;4.97;;
81160;SDS011;70637;48.514;14.500;2023-08-01T12:23:42;8.73;;;5.50;;
81160;SDS011;70637;48.514;14.500;2023-08-01T12:26:08;7.78;;;5.53;;
81160;SDS011;70637;48.514;14.500;2023-08-01T12:28:34;9.63;;;5.30;;
81160;SDS011;70637;48.514;14.500;2023-08-01T12:31:00;8.02;;;5.72;;
81160;SDS011;70637;48.514;14.500;2023-08-01T12:33:25;9.68;;;5.90;;
81160;SDS011;70637;48.514;14.500;2023-08-01T12:35:51;9.30;;;5.47;;
81160;SDS011;70637;48.514;14.500;2023-08-01T12:38:17;6.72;;;5.60;;
81160;SDS011;70637;48.514;14.500;2023-08-01T12:40:43;9.02;;;5.82;;
81160;SDS011;70637;48.514;14.500;2023-08-01T12:43:08;8.52;;;5.72;;
81160;SDS011;70637;48.514;14.500;2023-08-01T12:45:34;10.35;;;5.93;;
81160;SDS011;70637;48.514;14.500;2023-08-01T12:47:59;9.35;;;5.85;;
81160;SDS011;70637;48.514;14.500;2023-08-01T12:50:25;6.70;;;5.40;;
81160;SDS011;70637;48.514;14.500;2023-08-01T12:52:51;8.93;;;5.90;;
81160;SDS011;70637;48.514;14.500;2023-08-01T12:55:17;9.95;;;5.95;;
81160;SDS011;70637;48.514;14.500;2023-08-01T12:57:42;9.82;;;5.78;;
81160;SDS011;70637;48.514;14.500;2023-08-01T13:00:09;8.43;;;5.97;;
81160;SDS011;70637;48.514;14.500;2023-08-01T13:02:35;8.32;;;5.55;;
81160;SDS011;70637;48.514;14.500;2023-08-01T13:05:02;9.82;;;6.43;;
81160;SDS011;70637;48.514;14.500;2023-08-01T13:07:30;10.50;;;6.50;;
81160;SDS011;70637;48.514;14.500;2023-08-01T13:09:59;10.02;;;7.03;;
81160;SDS011;70637;48.514;14.500;2023-08-01T13:12:25;11.93;;;7.47;;
81160;SDS011;70637;48.514;14.500;2023-08-01T13:14:51;9.27;;;7.18;;
81160;SDS011;70637;48.514;14.500;2023-08-01T13:17:17;11.05;;;7.20;;
81160;SDS011;70637;48.514;14.500;2023-08-01T13:19:43;8.40;;;6.68;;
81160;SDS011;70637;48.514;14.500;2023-08-01T13:22:09;10.15;;;7.50;;
81160;SDS011;70637;48.514;14.500;2023-08-01T13:24:34;11.48;;;7.85;;
81160;SDS011;70637;48.514;14.500;2023-08-01T13:27:00;11.43;;;7.63;;
81160;SDS011;70637;48.514;14.500;2023-08-01T13:29:25;12.45;;;7.70;;
81160;SDS011;70637;48.514;14.500;2023-08-01T13:31:51;13.10;;;8.00;;
81160;SDS011;70637;48.514;14.500;2023-08-01T13:34:17;14.77;;;7.65;;
81160;SDS011;70637;48.514;14.500;2023-08-01T13:36:43;10.93;;;8.00;;
81160;SDS011;70637;48.514;14.500;2023-08-01T13:39:08;10.48;;;8.23;;
81160;SDS011;70637;48.514;14.500;2023-08-01T13:41:34;12.10;;;8.45;;
81160;SDS011;70637;48.514;14.500;2023-08-01T13:44:00;11.85;;;7.75;;
81160;SDS011;70637;48.514;14.500;2023-08-01T13:46:27;13.23;;;8.52;;
81160;SDS011;70637;48.514;14.500;2023-08-01T13:48:52;15.20;;;8.52;;
81160;SDS011;70637;48.514;14.500;2023-08-01T13:51:18;12.02;;;8.63;;
81160;SDS011;70637;48.514;14.500;2023-08-01T13:53:44;13.48;;;9.70;;
81160;SDS011;70637;48.514;14.500;2023-08-01T13:56:12;14.07;;;9.98;;
81160;SDS011;70637;48.514;14.500;2023-08-01T13:58:38;13.05;;;10.00;;
81160;SDS011;70637;48.514;14.500;2023-08-01T14:01:04;13.82;;;9.77;;
81160;SDS011;70637;48.514;14.500;2023-08-01T14:03:32;14.30;;;9.77;;
81160;SDS011;70637;48.514;14.500;2023-08-01T14:06:09;13.05;;;9.60;;
81160;SDS011;70637;48.514;14.500;2023-08-01T14:08:39;13.18;;;9.73;;
81160;SDS011;70637;48.514;14.500;2023-08-01T14:11:07;16.70;;;9.05;;
81160;SDS011;70637;48.514;14.500;2023-08-01T14:13:34;11.90;;;8.82;;
81160;SDS011;70637;48.514;14.500;2023-08-01T14:16:01;10.73;;;8.82;;
81160;SDS011;70637;48.514;14.500;2023-08-01T14:18:27;11.70;;;8.35;;
81160;SDS011;70637;48.514;14.500;2023-08-01T14:20:53;11.95;;;8.38;;
81160;SDS011;70637;48.514;14.500;2023-08-01T14:23:19;13.80;;;8.43;;
81160;SDS011;70637;48.514;14.500;2023-08-01T14:25:45;9.98;;;8.43;;
81160;SDS011;70637;48.514;14.500;2023-08-01T14:28:11;10.73;;;8.55;;
81160;SDS011;70637;48.514;14.500;2023-08-01T14:30:38;10.55;;;7.70;;